Time;durP1;ratioP1;P1;durP2;ratioP2;P2;SDS_P1;SDS_P2;PMS_P1;PMS_P2;Temp;Humidity;BMP_temperature;BMP_pressure;BME280_temperature;BME280_humidity;BME280_pressure;Samples;Min_cycle;Max_cycle;Signal;HPM_P1;HPM_P2
2022/07/14 00:02:08;;;;;;;1.20;0.93;;;;;;;;;;5081129;28;20223;-78
2022/07/14 00:05:12;;;;;;;1.80;0.97;;;;;;;;;;5080468;28;20199;-78
2022/07/14 00:08:17;;;;;;;2.13;0.80;;;;;;;;;;5056812;28;20199;-78
2022/07/14 00:11:21;;;;;;;2.03;0.90;;;;;;;;;;5080220;28;20215;-78
2022/07/14 00:14:25;;;;;;;2.40;0.93;;;;;;;;;;5080956;28;20179;-78
2022/07/14 00:17:29;;;;;;;2.60;0.90;;;;;;;;;;5067632;28;20191;-78
2022/07/14 00:20:34;;;;;;;0.63;0.63;;;;;;;;;;5079811;28;20215;-78
2022/07/14 00:23:38;;;;;;;0.97;0.63;;;;;;;;;;5057207;28;20199;-78
2022/07/14 00:26:42;;;;;;;4.00;0.77;;;;;;;;;;5056935;28;20188;-78
2022/07/14 00:29:47;;;;;;;1.33;0.70;;;;;;;;;;5080770;28;20176;-78
2022/07/14 00:32:51;;;;;;;2.70;1.07;;;;;;;;;;5071143;28;20184;-78
2022/07/14 00:35:56;;;;;;;1.80;1.20;;;;;;;;;;5084095;28;20187;-79
2022/07/14 00:39:02;;;;;;;2.27;1.20;;;;;;;;;;5071096;28;20179;-78
2022/07/14 00:42:06;;;;;;;2.50;1.30;;;;;;;;;;5059117;28;20215;-78
2022/07/14 00:45:13;;;;;;;1.63;1.07;;;;;;;;;;5071989;28;20180;-79
2022/07/14 00:48:19;;;;;;;2.07;1.23;;;;;;;;;;5070538;28;20539;-79
2022/07/14 00:51:23;;;;;;;2.33;1.10;;;;;;;;;;5057629;28;20219;-78
2022/07/14 00:54:29;;;;;;;3.77;1.30;;;;;;;;;;5070681;28;20180;-78
2022/07/14 00:57:33;;;;;;;1.20;1.00;;;;;;;;;;5049764;28;20184;-78
2022/07/14 01:00:37;;;;;;;1.30;1.10;;;;;;;;;;5046796;28;20199;-79
2022/07/14 01:03:41;;;;;;;2.67;1.50;;;;;;;;;;5048877;28;20183;-79
2022/07/14 01:06:46;;;;;;;1.70;1.30;;;;;;;;;;5043895;28;20175;-79
2022/07/14 01:09:50;;;;;;;3.90;1.13;;;;;;;;;;5055222;28;20543;-79
2022/07/14 01:13:00;;;;;;;2.73;1.50;;;;;;;;;;5054836;28;20195;-79
2022/07/14 01:16:05;;;;;;;2.37;1.30;;;;;;;;;;5078410;28;20199;-79
2022/07/14 01:19:09;;;;;;;2.53;1.40;;;;;;;;;;5065866;28;20180;-79
2022/07/14 01:22:14;;;;;;;1.43;1.17;;;;;;;;;;5065902;28;20214;-79
2022/07/14 01:25:20;;;;;;;3.13;1.27;;;;;;;;;;5054479;28;20192;-79
2022/07/14 01:28:24;;;;;;;1.47;1.00;;;;;;;;;;5065777;28;20191;-79
2022/07/14 01:31:28;;;;;;;1.20;1.10;;;;;;;;;;5065181;28;20219;-79
2022/07/14 01:34:33;;;;;;;2.47;1.20;;;;;;;;;;5042450;28;20638;-79
2022/07/14 01:37:37;;;;;;;2.30;1.03;;;;;;;;;;5034995;28;20187;-79
2022/07/14 01:40:45;;;;;;;1.90;1.10;;;;;;;;;;5065718;28;20222;-79
2022/07/14 01:43:49;;;;;;;1.53;1.30;;;;;;;;;;5054703;28;20188;-79
2022/07/14 01:46:53;;;;;;;1.90;1.20;;;;;;;;;;5072267;28;20188;-79
2022/07/14 01:49:58;;;;;;;1.73;1.00;;;;;;;;;;5053736;28;20172;-79
2022/07/14 01:53:04;;;;;;;4.70;1.10;;;;;;;;;;5080289;22;20195;-77
2022/07/14 01:56:10;;;;;;;2.73;0.97;;;;;;;;;;5070064;28;20199;-77
2022/07/14 01:59:14;;;;;;;1.20;0.87;;;;;;;;;;5072566;28;20188;-77
2022/07/14 02:02:19;;;;;;;1.67;0.93;;;;;;;;;;5072799;28;20218;-77
2022/07/14 02:05:23;;;;;;;2.03;1.00;;;;;;;;;;5073486;28;20199;-77
2022/07/14 02:08:28;;;;;;;2.17;0.97;;;;;;;;;;5061113;28;20191;-77
2022/07/14 02:14:56;;;;;;;1.30;1.00;;;;;;;;;;5072199;28;20531;-77
2022/07/14 02:18:00;;;;;;;1.37;0.90;;;;;;;;;;5061568;28;20180;-77
2022/07/14 02:21:04;;;;;;;1.20;1.10;;;;;;;;;;5072472;28;20226;-77
2022/07/14 02:24:09;;;;;;;3.80;1.17;;;;;;;;;;5041018;28;20654;-77
2022/07/14 02:27:13;;;;;;;3.97;1.63;;;;;;;;;;5081117;28;20195;-77
2022/07/14 02:30:18;;;;;;;5.10;2.23;;;;;;;;;;5068875;28;20195;-77
2022/07/14 02:33:22;;;;;;;3.97;1.73;;;;;;;;;;5060660;28;20199;-76
2022/07/14 02:36:27;;;;;;;2.93;1.70;;;;;;;;;;5072674;28;20175;-77
2022/07/14 02:39:31;;;;;;;1.97;1.27;;;;;;;;;;5060854;28;20188;-77
2022/07/14 02:42:35;;;;;;;1.83;1.20;;;;;;;;;;5071123;28;20211;-77
2022/07/14 02:45:39;;;;;;;1.47;1.10;;;;;;;;;;5072319;28;20175;-77
2022/07/14 02:48:43;;;;;;;3.40;1.43;;;;;;;;;;5061010;28;20202;-77
2022/07/14 02:51:48;;;;;;;2.33;1.40;;;;;;;;;;5060136;28;20214;-77
2022/07/14 02:54:52;;;;;;;1.87;1.20;;;;;;;;;;5039089;28;20203;-77
2022/07/14 02:57:59;;;;;;;2.93;1.50;;;;;;;;;;5066961;28;20642;-77
2022/07/14 03:01:07;;;;;;;1.87;1.10;;;;;;;;;;5060522;28;20223;-77
2022/07/14 03:04:12;;;;;;;8.23;1.50;;;;;;;;;;5049388;28;20191;-77
2022/07/14 03:07:17;;;;;;;2.27;1.30;;;;;;;;;;5060906;28;20183;-77
2022/07/14 03:10:22;;;;;;;2.83;1.23;;;;;;;;;;5059986;28;20646;-76
2022/07/14 03:13:26;;;;;;;1.93;1.10;;;;;;;;;;5061505;28;20187;-77
2022/07/14 03:16:30;;;;;;;2.87;1.23;;;;;;;;;;5051904;28;20184;-77
2022/07/14 03:19:41;;;;;;;3.30;1.23;;;;;;;;;;5029461;28;20188;-77
2022/07/14 03:22:45;;;;;;;3.87;1.50;;;;;;;;;;5040860;28;20215;-76
2022/07/14 03:25:56;;;;;;;1.67;1.37;;;;;;;;;;5040410;28;20184;-77
2022/07/14 03:29:01;;;;;;;5.67;1.20;;;;;;;;;;5052715;28;20172;-77
2022/07/14 03:32:07;;;;;;;3.10;1.70;;;;;;;;;;5040212;28;20211;-76
2022/07/14 03:35:12;;;;;;;4.07;1.70;;;;;;;;;;5071950;28;20183;-77
2022/07/14 03:38:18;;;;;;;6.07;2.03;;;;;;;;;;5060230;28;20195;-77
2022/07/14 03:41:25;;;;;;;5.80;2.20;;;;;;;;;;5051529;28;20235;-77
2022/07/14 03:44:29;;;;;;;3.83;1.93;;;;;;;;;;5029373;28;20184;-80
2022/07/14 03:47:34;;;;;;;3.60;1.67;;;;;;;;;;5072181;28;20195;-77
2022/07/14 03:50:38;;;;;;;3.80;1.67;;;;;;;;;;5048977;28;20626;-77
2022/07/14 03:53:42;;;;;;;4.37;1.90;;;;;;;;;;5057046;28;20207;-77
2022/07/14 03:56:47;;;;;;;5.07;2.10;;;;;;;;;;5047977;28;20188;-77
2022/07/14 03:59:54;;;;;;;8.10;1.73;;;;;;;;;;5052279;28;20184;-77
2022/07/14 04:02:58;;;;;;;2.37;1.27;;;;;;;;;;5052485;28;20180;-77
2022/07/14 04:06:05;;;;;;;1.73;1.40;;;;;;;;;;5073142;28;20187;-77
2022/07/14 04:09:09;;;;;;;3.43;1.47;;;;;;;;;;5074052;28;20187;-76
2022/07/14 04:12:18;;;;;;;3.67;1.27;;;;;;;;;;5074588;28;20216;-76
2022/07/14 04:15:23;;;;;;;1.97;1.40;;;;;;;;;;5063769;28;20180;-77
2022/07/14 04:18:27;;;;;;;4.70;1.20;;;;;;;;;;5075086;28;20187;-77
2022/07/14 04:21:32;;;;;;;2.27;1.10;;;;;;;;;;5063184;28;20227;-77
2022/07/14 04:24:37;;;;;;;2.00;1.20;;;;;;;;;;5063147;28;20199;-77
2022/07/14 04:27:42;;;;;;;1.60;1.20;;;;;;;;;;5063596;28;20195;-77
2022/07/14 04:30:47;;;;;;;2.07;1.30;;;;;;;;;;5063556;28;20211;-77
2022/07/14 04:33:51;;;;;;;4.07;1.73;;;;;;;;;;5071124;28;20196;-77
2022/07/14 04:36:56;;;;;;;1.90;1.40;;;;;;;;;;5054273;28;20191;-77
2022/07/14 04:40:00;;;;;;;2.93;1.43;;;;;;;;;;5063650;28;20175;-75
2022/07/14 04:43:05;;;;;;;4.30;1.47;;;;;;;;;;5075002;28;20507;-77
2022/07/14 04:46:11;;;;;;;2.13;1.30;;;;;;;;;;5062803;28;20183;-78
2022/07/14 04:52:47;;;;;;;1.47;1.23;;;;;;;;;;5051460;28;20223;-77
2022/07/14 04:56:12;;;;;;;1.90;1.40;;;;;;;;;;5065745;28;20187;-77
2022/07/14 04:59:27;;;;;;;2.33;1.30;;;;;;;;;;5051153;28;20192;-77
2022/07/14 05:02:31;;;;;;;4.43;1.37;;;;;;;;;;5051332;28;20231;-76
2022/07/14 05:05:35;;;;;;;8.73;1.50;;;;;;;;;;5041818;28;20176;-77
2022/07/14 05:08:39;;;;;;;7.80;1.60;;;;;;;;;;5057607;28;20184;-75
2022/07/14 05:11:45;;;;;;;5.97;2.30;;;;;;;;;;5063142;28;20215;-77
2022/07/14 05:14:50;;;;;;;3.00;2.00;;;;;;;;;;5063240;28;20191;-77
2022/07/14 05:17:56;;;;;;;3.47;1.70;;;;;;;;;;5043524;28;20180;-77
2022/07/14 05:21:00;;;;;;;3.80;1.30;;;;;;;;;;5042953;28;20223;-77
2022/07/14 05:24:05;;;;;;;2.17;1.10;;;;;;;;;;5043391;28;20199;-78
2022/07/14 05:27:09;;;;;;;5.57;1.50;;;;;;;;;;5044183;28;20528;-77
2022/07/14 05:30:14;;;;;;;3.00;1.00;;;;;;;;;;5043786;28;20184;-77
2022/07/14 05:33:18;;;;;;;3.37;1.50;;;;;;;;;;5057060;28;20180;-78
2022/07/14 05:36:26;;;;;;;1.93;1.07;;;;;;;;;;5062851;28;20646;-76
2022/07/14 05:39:30;;;;;;;1.80;1.07;;;;;;;;;;5066461;28;20195;-78
2022/07/14 05:42:34;;;;;;;1.90;1.00;;;;;;;;;;5062880;28;20227;-76
2022/07/14 05:45:38;;;;;;;1.03;0.90;;;;;;;;;;5050694;28;20175;-77
2022/07/14 05:48:43;;;;;;;1.23;1.07;;;;;;;;;;5051016;28;20176;-76
2022/07/14 05:51:48;;;;;;;4.63;1.40;;;;;;;;;;5073880;28;20203;-77
2022/07/14 05:54:53;;;;;;;6.70;1.13;;;;;;;;;;5073345;28;20211;-76
2022/07/14 05:57:58;;;;;;;1.27;1.00;;;;;;;;;;5072633;28;20665;-77
2022/07/14 06:01:03;;;;;;;1.70;1.03;;;;;;;;;;5061534;28;20223;-76
2022/07/14 06:04:08;;;;;;;3.60;1.20;;;;;;;;;;5050175;28;20179;-77
2022/07/14 06:07:12;;;;;;;2.17;1.13;;;;;;;;;;5072709;28;20191;-77
2022/07/14 06:10:20;;;;;;;1.57;1.10;;;;;;;;;;5065365;28;20187;-76
2022/07/14 06:13:29;;;;;;;4.57;1.10;;;;;;;;;;5061386;28;20179;-76
2022/07/14 06:16:34;;;;;;;5.30;1.27;;;;;;;;;;5060929;28;20176;-77
2022/07/14 06:19:39;;;;;;;1.43;1.00;;;;;;;;;;5061199;28;20179;-77
2022/07/14 06:22:44;;;;;;;5.90;1.40;;;;;;;;;;5061591;28;20223;-77
2022/07/14 06:25:49;;;;;;;1.23;1.13;;;;;;;;;;5061210;28;20195;-76
2022/07/14 06:28:58;;;;;;;3.30;1.27;;;;;;;;;;5072807;28;20535;-76
2022/07/14 06:32:03;;;;;;;1.70;1.23;;;;;;;;;;5072771;28;20203;-77
2022/07/14 06:35:08;;;;;;;2.63;1.17;;;;;;;;;;5072419;28;20184;-77
2022/07/14 06:38:13;;;;;;;3.33;1.20;;;;;;;;;;5072963;28;20179;-76
2022/07/14 06:41:21;;;;;;;3.43;1.60;;;;;;;;;;5072785;28;20219;-77
2022/07/14 06:44:25;;;;;;;2.47;1.13;;;;;;;;;;5050023;28;20183;-77
2022/07/14 06:47:31;;;;;;;2.63;1.40;;;;;;;;;;5072883;28;20504;-77
2022/07/14 06:50:36;;;;;;;3.00;1.00;;;;;;;;;;5072745;28;20183;-77
2022/07/14 06:53:39;;;;;;;5.20;1.00;;;;;;;;;;5072329;28;20200;-76
2022/07/14 06:56:43;;;;;;;3.77;1.20;;;;;;;;;;5084097;28;20172;-77
2022/07/14 06:59:48;;;;;;;4.37;1.10;;;;;;;;;;5072972;28;20190;-77
2022/07/14 07:02:52;;;;;;;6.40;1.60;;;;;;;;;;5072856;28;20228;-77
2022/07/14 07:09:20;;;;;;;1.27;1.00;;;;;;;;;;5073138;28;20182;-77
2022/07/14 07:12:24;;;;;;;3.33;1.00;;;;;;;;;;5072305;28;20206;-77
2022/07/14 07:15:28;;;;;;;1.00;0.90;;;;;;;;;;5072569;28;20514;-76
2022/07/14 07:18:33;;;;;;;1.77;0.90;;;;;;;;;;5084102;28;20183;-77
2022/07/14 07:21:37;;;;;;;1.10;1.00;;;;;;;;;;5060514;28;20585;-77
2022/07/14 07:24:41;;;;;;;3.20;1.03;;;;;;;;;;5072753;28;20548;-77
2022/07/14 07:27:45;;;;;;;3.27;0.80;;;;;;;;;;5073481;28;20201;-77
2022/07/14 07:30:49;;;;;;;3.13;1.07;;;;;;;;;;5076590;28;20681;-76
2022/07/14 07:33:54;;;;;;;1.88;1.00;;;;;;;;;;5076791;28;20173;-77
2022/07/14 07:36:58;;;;;;;2.20;0.90;;;;;;;;;;5076750;28;20186;-77
2022/07/14 07:40:03;;;;;;;2.83;0.90;;;;;;;;;;5076472;28;20172;-77
2022/07/14 07:43:07;;;;;;;2.35;0.80;;;;;;;;;;5076770;28;20208;-77
2022/07/14 07:46:11;;;;;;;1.00;0.90;;;;;;;;;;5076612;28;20182;-76
2022/07/14 07:49:15;;;;;;;4.53;1.05;;;;;;;;;;5064438;28;20177;-77
2022/07/14 07:52:20;;;;;;;1.52;0.85;;;;;;;;;;5075902;28;20557;-77
2022/07/14 07:55:24;;;;;;;2.40;0.68;;;;;;;;;;5112173;22;20234;-78
2022/07/14 07:58:28;;;;;;;3.60;0.80;;;;;;;;;;5091967;28;20206;-78
2022/07/14 08:01:32;;;;;;;1.88;0.80;;;;;;;;;;5092883;28;20223;-79
2022/07/14 08:04:37;;;;;;;1.10;0.80;;;;;;;;;;5059823;28;20179;-78
2022/07/14 08:07:41;;;;;;;2.90;0.90;;;;;;;;;;5081369;28;20530;-79
2022/07/14 08:10:45;;;;;;;1.95;0.93;;;;;;;;;;5091560;28;20206;-78
2022/07/14 08:13:49;;;;;;;1.33;0.80;;;;;;;;;;5092709;28;20183;-78
2022/07/14 08:16:55;;;;;;;4.60;1.00;;;;;;;;;;5105367;28;20625;-79
2022/07/14 08:19:59;;;;;;;3.55;0.95;;;;;;;;;;5093839;28;20187;-79
2022/07/14 08:23:04;;;;;;;1.45;0.80;;;;;;;;;;5092563;28;20555;-78
2022/07/14 08:26:08;;;;;;;1.83;1.05;;;;;;;;;;5094606;28;20179;-79
2022/07/14 08:29:12;;;;;;;3.92;1.00;;;;;;;;;;5105973;28;20191;-79
2022/07/14 08:32:17;;;;;;;2.67;0.98;;;;;;;;;;5090979;28;20693;-79
2022/07/14 08:35:23;;;;;;;1.35;0.90;;;;;;;;;;5090307;28;20188;-78
2022/07/14 08:38:28;;;;;;;3.80;1.05;;;;;;;;;;5091034;28;20179;-79
2022/07/14 08:41:34;;;;;;;1.10;0.73;;;;;;;;;;5089836;28;20685;-79
2022/07/14 08:44:39;;;;;;;1.48;0.93;;;;;;;;;;5093945;28;20207;-79
2022/07/14 08:47:43;;;;;;;2.25;0.90;;;;;;;;;;5090160;28;20188;-79
2022/07/14 08:50:48;;;;;;;2.50;0.77;;;;;;;;;;5090680;28;20223;-79
2022/07/14 08:53:52;;;;;;;3.28;0.95;;;;;;;;;;5078362;28;20188;-79
2022/07/14 08:56:57;;;;;;;1.65;0.90;;;;;;;;;;5100975;28;20598;-80
2022/07/14 09:00:09;;;;;;;3.33;0.98;;;;;;;;;;5065502;28;20191;-80
2022/07/14 09:03:15;;;;;;;1.35;0.90;;;;;;;;;;5090006;28;20207;-79
2022/07/14 09:06:52;;;;;;;2.28;1.00;;;;;;;;;;5090115;28;20191;-79
2022/07/14 09:10:11;;;;;;;2.22;0.90;;;;;;;;;;5091288;28;20191;-79
2022/07/14 09:13:18;;;;;;;2.75;0.80;;;;;;;;;;5103282;28;20180;-79
2022/07/14 09:16:23;;;;;;;2.72;1.13;;;;;;;;;;5088238;28;20179;-79
2022/07/14 09:19:27;;;;;;;5.78;1.23;;;;;;;;;;5079338;28;20171;-78
2022/07/14 09:22:32;;;;;;;4.60;0.90;;;;;;;;;;5090818;28;20226;-79
2022/07/14 09:25:37;;;;;;;2.30;1.00;;;;;;;;;;5091430;28;20199;-79
2022/07/14 09:28:44;;;;;;;1.10;1.00;;;;;;;;;;5091378;28;20545;-79
2022/07/14 09:31:48;;;;;;;2.05;0.90;;;;;;;;;;5059530;28;20215;-79
2022/07/14 09:35:00;;;;;;;3.42;1.10;;;;;;;;;;5049263;28;20175;-79
2022/07/14 09:38:15;;;;;;;3.22;1.25;;;;;;;;;;5060173;28;20188;-79
2022/07/14 09:41:20;;;;;;;2.30;0.93;;;;;;;;;;5083061;28;20215;-79
2022/07/14 09:44:25;;;;;;;1.75;0.85;;;;;;;;;;5089712;28;20187;-79
2022/07/14 09:47:29;;;;;;;1.52;1.00;;;;;;;;;;5089781;28;20640;-79
2022/07/14 09:50:41;;;;;;;1.83;0.93;;;;;;;;;;5091348;28;20175;-79
2022/07/14 09:53:46;;;;;;;3.88;0.80;;;;;;;;;;5090743;28;20179;-79
2022/07/14 09:56:50;;;;;;;3.90;0.90;;;;;;;;;;5080354;28;20183;-79
2022/07/14 10:00:12;;;;;;;2.00;0.82;;;;;;;;;;5078958;28;20183;-80
2022/07/14 10:03:17;;;;;;;0.85;0.85;;;;;;;;;;5102000;28;20203;-80
2022/07/14 10:06:22;;;;;;;0.85;0.80;;;;;;;;;;5090196;28;20179;-80
2022/07/14 10:09:26;;;;;;;3.60;1.00;;;;;;;;;;5090809;28;20179;-79
2022/07/14 10:12:31;;;;;;;3.50;0.80;;;;;;;;;;5092001;28;20215;-80
2022/07/14 10:15:35;;;;;;;7.38;0.90;;;;;;;;;;5070929;28;20172;-79
2022/07/14 10:18:42;;;;;;;3.20;0.90;;;;;;;;;;5080902;28;20533;-80
2022/07/14 10:21:48;;;;;;;4.20;1.10;;;;;;;;;;5090521;28;20705;-80
2022/07/14 10:24:53;;;;;;;3.05;0.90;;;;;;;;;;5080207;28;20521;-79
2022/07/14 10:27:57;;;;;;;1.08;0.70;;;;;;;;;;5103992;28;20183;-79
2022/07/14 10:31:20;;;;;;;2.35;0.90;;;;;;;;;;5090719;28;20222;-80
2022/07/14 10:34:51;;;;;;;1.30;0.80;;;;;;;;;;5090935;28;20191;-80
2022/07/14 10:38:20;;;;;;;2.85;1.00;;;;;;;;;;5090173;28;20526;-79
2022/07/14 10:41:51;;;;;;;2.58;0.85;;;;;;;;;;5101817;28;20218;-79
2022/07/14 10:44:56;;;;;;;1.67;0.70;;;;;;;;;;5077213;28;20554;-79
2022/07/14 10:48:00;;;;;;;1.73;0.77;;;;;;;;;;5078431;28;20195;-80
2022/07/14 10:51:14;;;;;;;1.27;0.98;;;;;;;;;;5069457;28;20219;-80
2022/07/14 10:54:27;;;;;;;0.70;0.60;;;;;;;;;;5082278;28;20203;-79
2022/07/14 10:57:33;;;;;;;2.03;0.77;;;;;;;;;;5088978;28;20175;-80
2022/07/14 11:00:44;;;;;;;0.70;0.63;;;;;;;;;;5089287;28;20199;-79
2022/07/14 11:03:49;;;;;;;3.35;0.90;;;;;;;;;;5080612;28;20207;-80
2022/07/14 11:07:32;;;;;;;2.10;0.80;;;;;;;;;;5082711;28;20578;-79
2022/07/14 11:10:37;;;;;;;1.80;0.70;;;;;;;;;;5104193;28;20167;-80
2022/07/14 11:14:00;;;;;;;1.60;0.90;;;;;;;;;;5089029;28;20183;-79
2022/07/14 11:17:04;;;;;;;2.80;0.90;;;;;;;;;;5081826;28;20630;-80
2022/07/14 11:20:10;;;;;;;3.80;0.80;;;;;;;;;;5080686;28;20199;-80
2022/07/14 11:23:17;;;;;;;1.77;0.80;;;;;;;;;;5105615;28;20214;-79
2022/07/14 11:26:41;;;;;;;2.08;0.90;;;;;;;;;;5092304;28;20187;-80
2022/07/14 11:29:46;;;;;;;3.13;0.88;;;;;;;;;;5076805;28;20188;-80
2022/07/14 11:33:04;;;;;;;2.70;1.05;;;;;;;;;;5067591;28;20191;-79
2022/07/14 11:36:19;;;;;;;1.90;0.88;;;;;;;;;;5095314;28;20188;-79
2022/07/14 11:39:24;;;;;;;2.13;0.75;;;;;;;;;;5070024;28;20180;-79
2022/07/14 11:42:28;;;;;;;3.13;0.90;;;;;;;;;;5074530;28;20214;-79
2022/07/14 11:46:01;;;;;;;1.70;0.80;;;;;;;;;;5058824;28;20190;-79
2022/07/14 11:49:06;;;;;;;3.60;1.13;;;;;;;;;;5092257;28;20183;-79
2022/07/14 11:52:10;;;;;;;1.85;0.90;;;;;;;;;;5087786;28;20214;-80
2022/07/14 11:55:14;;;;;;;5.90;1.00;;;;;;;;;;5089282;28;20206;-79
2022/07/14 11:58:23;;;;;;;2.25;1.10;;;;;;;;;;5072994;28;20190;-79
2022/07/14 12:01:31;;;;;;;1.77;0.93;;;;;;;;;;5076517;28;20214;-79
2022/07/14 12:04:54;;;;;;;2.63;1.00;;;;;;;;;;5071665;28;20204;-79
2022/07/14 12:08:02;;;;;;;1.98;1.00;;;;;;;;;;5072150;28;20176;-80
2022/07/14 12:11:09;;;;;;;1.48;0.70;;;;;;;;;;5072768;28;20211;-79
2022/07/14 12:14:16;;;;;;;1.50;0.80;;;;;;;;;;5101225;28;20187;-79
2022/07/14 12:17:21;;;;;;;1.65;0.80;;;;;;;;;;5092605;28;20187;-79
2022/07/14 12:20:26;;;;;;;2.88;0.90;;;;;;;;;;5082593;28;20187;-79
2022/07/14 12:23:30;;;;;;;1.33;0.90;;;;;;;;;;5106684;28;20215;-79
2022/07/14 12:26:35;;;;;;;2.13;0.90;;;;;;;;;;5065475;28;20183;-79
2022/07/14 12:29:51;;;;;;;0.88;0.85;;;;;;;;;;5099823;28;20194;-78
2022/07/14 12:32:55;;;;;;;1.45;1.00;;;;;;;;;;5099402;28;20195;-79
2022/07/14 12:36:01;;;;;;;2.75;0.80;;;;;;;;;;5085903;28;20187;-79
2022/07/14 12:39:07;;;;;;;2.00;0.77;;;;;;;;;;5097862;28;20187;-78
2022/07/14 12:42:12;;;;;;;1.55;0.90;;;;;;;;;;5096892;28;20215;-78
2022/07/14 12:45:16;;;;;;;0.90;0.80;;;;;;;;;;5085414;28;20172;-78
2022/07/14 12:48:20;;;;;;;3.63;1.00;;;;;;;;;;5100247;28;20178;-78
2022/07/14 12:51:33;;;;;;;1.25;0.80;;;;;;;;;;5083859;28;20214;-77
2022/07/14 12:54:40;;;;;;;2.35;0.85;;;;;;;;;;5083977;28;20199;-76
2022/07/14 12:57:44;;;;;;;0.80;0.60;;;;;;;;;;5072021;28;20630;-78
2022/07/14 13:00:48;;;;;;;4.43;1.08;;;;;;;;;;5071414;28;20210;-77
2022/07/14 13:03:55;;;;;;;5.60;0.80;;;;;;;;;;5082635;28;20210;-76
2022/07/14 13:07:18;;;;;;;3.58;1.00;;;;;;;;;;5071518;28;20488;-77
2022/07/14 13:10:26;;;;;;;0.73;0.70;;;;;;;;;;5094982;28;20187;-77
2022/07/14 13:13:33;;;;;;;1.98;0.90;;;;;;;;;;5095639;28;20187;-77
2022/07/14 13:16:43;;;;;;;2.88;0.80;;;;;;;;;;5083132;28;20175;-77
2022/07/14 13:19:47;;;;;;;2.05;0.77;;;;;;;;;;5059994;28;20179;-77
2022/07/14 13:22:57;;;;;;;2.35;0.88;;;;;;;;;;5082594;28;20645;-77
2022/07/14 13:26:11;;;;;;;1.30;0.65;;;;;;;;;;5088447;28;20187;-77
2022/07/14 13:29:15;;;;;;;2.92;0.90;;;;;;;;;;5077953;28;20187;-78
2022/07/14 13:32:19;;;;;;;1.45;0.90;;;;;;;;;;5086711;28;20215;-78
2022/07/14 13:35:23;;;;;;;1.85;0.80;;;;;;;;;;5086002;28;20186;-78
2022/07/14 13:38:27;;;;;;;2.25;0.98;;;;;;;;;;5104689;28;20190;-79
2022/07/14 13:41:32;;;;;;;5.32;1.00;;;;;;;;;;5075788;28;20211;-78
2022/07/14 13:44:36;;;;;;;2.88;0.90;;;;;;;;;;5092140;28;20207;-79
2022/07/14 13:47:40;;;;;;;1.88;0.82;;;;;;;;;;5102778;28;20179;-78
2022/07/14 13:54:07;;;;;;;2.50;1.02;;;;;;;;;;5089310;28;20551;-78
2022/07/14 13:57:12;;;;;;;2.55;0.80;;;;;;;;;;5118230;22;20227;-84
2022/07/14 14:00:16;;;;;;;5.45;1.00;;;;;;;;;;5070121;28;20669;-85
2022/07/14 14:03:24;;;;;;;2.20;0.80;;;;;;;;;;5084418;28;20680;-85
2022/07/14 14:06:29;;;;;;;4.53;0.80;;;;;;;;;;5061191;28;20220;-85
2022/07/14 14:09:33;;;;;;;4.90;1.00;;;;;;;;;;5061986;28;20521;-85
2022/07/14 14:12:37;;;;;;;3.45;0.80;;;;;;;;;;5061575;28;20183;-85
2022/07/14 14:15:43;;;;;;;1.85;1.00;;;;;;;;;;5073410;28;20664;-85
2022/07/14 14:18:48;;;;;;;2.30;0.95;;;;;;;;;;5059141;28;20192;-85
2022/07/14 14:21:52;;;;;;;0.95;0.85;;;;;;;;;;5061314;28;20199;-85
2022/07/14 14:24:56;;;;;;;4.57;1.08;;;;;;;;;;5061346;28;20689;-85
2022/07/14 14:28:01;;;;;;;1.80;0.80;;;;;;;;;;5061879;28;20184;-85
2022/07/14 14:31:06;;;;;;;1.52;0.90;;;;;;;;;;5061514;28;20187;-85
2022/07/14 14:34:10;;;;;;;2.90;1.02;;;;;;;;;;5061536;28;20168;-84
2022/07/14 14:37:14;;;;;;;2.17;0.93;;;;;;;;;;5049686;28;20211;-85
2022/07/14 14:40:19;;;;;;;3.17;1.13;;;;;;;;;;5058121;28;20283;-85
2022/07/14 14:43:23;;;;;;;24.33;2.28;;;;;;;;;;5060647;28;20670;-86
2022/07/14 14:46:27;;;;;;;5.82;1.00;;;;;;;;;;5047154;28;20708;-85
2022/07/14 14:49:34;;;;;;;2.72;0.88;;;;;;;;;;5049386;28;20283;-84
2022/07/14 14:52:40;;;;;;;3.60;0.95;;;;;;;;;;5050020;28;20519;-90
2022/07/14 14:55:44;;;;;;;3.92;1.23;;;;;;;;;;5049230;28;20207;-84
2022/07/14 14:58:49;;;;;;;2.08;0.90;;;;;;;;;;5030125;28;20180;-84
2022/07/14 15:01:54;;;;;;;4.40;1.10;;;;;;;;;;5041386;28;20642;-84
2022/07/14 15:05:01;;;;;;;5.03;1.10;;;;;;;;;;5046804;28;20223;-87
2022/07/14 15:08:05;;;;;;;6.25;1.13;;;;;;;;;;5072857;28;20188;-84
2022/07/14 15:11:09;;;;;;;1.75;0.93;;;;;;;;;;5084710;28;20176;-83
2022/07/14 15:14:13;;;;;;;2.75;1.17;;;;;;;;;;5084270;28;20168;-83
2022/07/14 15:17:18;;;;;;;1.17;1.00;;;;;;;;;;5050425;28;20223;-83
2022/07/14 15:20:22;;;;;;;2.70;1.10;;;;;;;;;;5039176;28;20199;-83
2022/07/14 15:23:26;;;;;;;1.90;0.90;;;;;;;;;;5061392;28;20183;-83
2022/07/14 15:26:30;;;;;;;3.33;1.08;;;;;;;;;;5061654;28;20207;-83
2022/07/14 15:29:35;;;;;;;1.83;0.88;;;;;;;;;;5073462;28;20520;-83
2022/07/14 15:32:39;;;;;;;2.97;1.02;;;;;;;;;;5061597;28;20196;-83
2022/07/14 15:35:44;;;;;;;2.03;0.90;;;;;;;;;;5060722;28;20212;-83
2022/07/14 15:42:11;;;;;;;1.80;1.27;;;;;;;;;;5081034;28;20196;-83
2022/07/14 15:45:16;;;;;;;5.05;1.48;;;;;;;;;;5061582;28;20235;-83
2022/07/14 15:48:21;;;;;;;3.50;1.17;;;;;;;;;;5061520;28;20553;-83
2022/07/14 15:51:25;;;;;;;2.70;1.20;;;;;;;;;;5065674;28;20507;-83
2022/07/14 15:54:30;;;;;;;3.15;1.13;;;;;;;;;;5053669;28;20188;-83
2022/07/14 15:57:35;;;;;;;2.45;1.05;;;;;;;;;;5053457;28;20223;-83
2022/07/14 16:00:39;;;;;;;1.65;0.90;;;;;;;;;;5053998;28;20180;-85
2022/07/14 16:03:43;;;;;;;1.30;1.10;;;;;;;;;;5064390;28;20627;-83
2022/07/14 16:06:47;;;;;;;5.40;1.20;;;;;;;;;;5052648;28;20697;-86
2022/07/14 16:09:52;;;;;;;9.07;2.47;;;;;;;;;;5076235;28;20179;-84
2022/07/14 16:12:56;;;;;;;3.33;1.23;;;;;;;;;;5075722;28;20180;-85
2022/07/14 16:16:00;;;;;;;6.65;1.20;;;;;;;;;;5063913;28;20211;-85
2022/07/14 16:19:05;;;;;;;2.72;1.23;;;;;;;;;;5063423;28;20188;-84
2022/07/14 16:22:09;;;;;;;5.85;1.20;;;;;;;;;;5064174;28;20179;-85
2022/07/14 16:25:14;;;;;;;2.03;1.20;;;;;;;;;;5063944;28;20203;-84
2022/07/14 16:28:21;;;;;;;5.15;1.30;;;;;;;;;;5063906;28;20192;-86
2022/07/14 16:31:26;;;;;;;3.22;1.30;;;;;;;;;;5064003;28;20172;-86
2022/07/14 16:34:30;;;;;;;6.25;1.40;;;;;;;;;;5063610;28;20172;-87
2022/07/14 16:37:34;;;;;;;4.57;1.30;;;;;;;;;;5051885;28;20219;-86
2022/07/14 16:40:39;;;;;;;7.25;1.52;;;;;;;;;;5043946;28;20180;-86
2022/07/14 16:43:42;;;;;;;2.40;1.20;;;;;;;;;;5043266;28;20176;-87
2022/07/14 16:46:47;;;;;;;2.85;1.40;;;;;;;;;;5043561;28;20223;-87
2022/07/14 16:49:51;;;;;;;1.40;1.20;;;;;;;;;;5062023;28;20207;-86
2022/07/14 16:52:55;;;;;;;3.05;1.30;;;;;;;;;;5052185;28;20665;-85
2022/07/14 16:55:59;;;;;;;2.72;1.40;;;;;;;;;;5051639;28;20219;-86
2022/07/14 16:59:03;;;;;;;1.88;1.10;;;;;;;;;;5075070;28;20619;-86
2022/07/14 17:02:07;;;;;;;3.33;1.30;;;;;;;;;;5050925;28;20180;-86
2022/07/14 17:08:34;;;;;;;4.63;1.30;;;;;;;;;;5055249;28;20181;-85
2022/07/14 17:11:38;;;;;;;5.60;1.48;;;;;;;;;;5042916;28;20176;-86
2022/07/14 17:14:42;;;;;;;4.43;1.52;;;;;;;;;;5073972;28;20198;-86
2022/07/14 17:17:46;;;;;;;3.70;1.52;;;;;;;;;;5063995;28;20205;-86
2022/07/14 17:20:50;;;;;;;1.90;1.50;;;;;;;;;;5074861;28;20530;-86
2022/07/14 17:23:55;;;;;;;1.60;1.42;;;;;;;;;;5075022;28;20176;-86
2022/07/14 17:26:59;;;;;;;2.17;1.63;;;;;;;;;;5074474;28;20210;-86
2022/07/14 17:30:04;;;;;;;3.42;1.20;;;;;;;;;;5074887;28;20546;-86
2022/07/14 17:33:08;;;;;;;5.43;1.42;;;;;;;;;;5063550;28;20518;-85
2022/07/14 17:36:12;;;;;;;5.78;1.50;;;;;;;;;;5031234;28;20217;-85
2022/07/14 17:39:17;;;;;;;3.03;1.48;;;;;;;;;;5042447;28;20182;-85
2022/07/14 17:42:21;;;;;;;6.38;1.77;;;;;;;;;;5042459;28;20201;-85
2022/07/14 17:45:25;;;;;;;4.35;1.73;;;;;;;;;;5042369;28;20231;-85
2022/07/14 17:48:29;;;;;;;6.38;1.70;;;;;;;;;;5043991;28;20197;-86
2022/07/14 17:54:56;;;;;;;3.13;1.17;;;;;;;;;;5073914;28;20179;-85
2022/07/14 17:58:00;;;;;;;11.55;2.72;;;;;;;;;;5062475;28;20179;-85
2022/07/14 18:01:05;;;;;;;3.40;1.85;;;;;;;;;;5051089;28;20511;-86
2022/07/14 18:04:09;;;;;;;6.97;2.47;;;;;;;;;;5062467;28;20206;-85
2022/07/14 18:07:13;;;;;;;7.45;1.70;;;;;;;;;;5062131;28;20219;-85
2022/07/14 18:10:17;;;;;;;3.90;1.75;;;;;;;;;;5062249;28;20186;-85
2022/07/14 18:13:24;;;;;;;3.95;1.70;;;;;;;;;;5061851;28;20189;-85
2022/07/14 18:16:28;;;;;;;3.95;1.88;;;;;;;;;;5061786;28;20214;-85
2022/07/14 18:19:33;;;;;;;3.55;1.40;;;;;;;;;;5050415;28;20201;-85
2022/07/14 18:22:38;;;;;;;4.18;1.42;;;;;;;;;;5073572;28;20201;-85
2022/07/14 18:25:43;;;;;;;3.85;1.88;;;;;;;;;;5061855;28;20577;-85
2022/07/14 18:28:47;;;;;;;3.33;1.63;;;;;;;;;;5061941;28;20520;-85
2022/07/14 18:31:51;;;;;;;5.90;1.80;;;;;;;;;;5062342;28;20182;-85
2022/07/14 18:34:55;;;;;;;4.78;1.90;;;;;;;;;;5050096;28;20179;-85
2022/07/14 18:37:59;;;;;;;3.72;1.60;;;;;;;;;;5061812;28;20516;-85
2022/07/14 18:41:03;;;;;;;5.68;1.45;;;;;;;;;;5062224;28;20189;-85
2022/07/14 18:44:07;;;;;;;1.50;1.27;;;;;;;;;;5061455;28;20177;-85
2022/07/14 18:47:11;;;;;;;1.55;1.42;;;;;;;;;;5061333;28;20218;-85
2022/07/14 18:50:15;;;;;;;4.13;1.20;;;;;;;;;;5050202;28;20198;-85
2022/07/14 18:53:19;;;;;;;2.45;1.30;;;;;;;;;;5062006;28;20185;-85
2022/07/14 18:56:24;;;;;;;3.15;1.45;;;;;;;;;;5072505;28;20221;-85
2022/07/14 18:59:28;;;;;;;2.40;1.45;;;;;;;;;;5061779;28;20184;-85